Capitol Logistics 451


KRFD
Chicago/Rockford International Airport
Rockford, Illinois, US
KMIA
Miami International Airport
Miami, Florida, US

Activity Log

Date Flight Route Aircraft Duration
01/22/2021 CPX207 BVT J89 ATL J45 OMN HILEY7 B763 2h 37m
05/12/2020 CPX207 JERKY JOT TTH GQO AMG OMN MLB ANNEY4 B763 2h 48m
01/13/2020 CPX207 BVT J89 ATL J45 OMN HILEY7 B763 2h 56m
12/31/2019 CPX451 OBK J89 IIU J99 IRQ J53 ORL V159 TRV B738 3h 00m
12/30/2019 CPX207 BVT J89 ATL J45 OMN HILEY7 B763 3h 24m
11/28/2019 CPX451 BVT J89 ATL J45 OMN HILEY7 B738 2h 47m
07/06/2019 CPX207 BVT J89 ATL J45 OMN HILEY7 B763 3h 10m
05/10/2019 CPX207 BVT J89 ATL J45 OMN HILEY7 B763 2h 50m
12/08/2018 CPX351 JOT LVT TAY SSCOT5 B752 2h 46m
11/29/2018 CPX351 JOT LVT TAY SSCOT4 B752 2h 52m

Route Details

Aircraft Information
Primary: Boeing 757-200SF
Backup: Boeing 737-800BCF
Route Data
Distance: 1160nm
Sched. Duration: 2h 50m
Avg. Duration: 2h 67m (+17m)
Times Flown: 10
Recm'd Route: BVT J89 ATL J45 OMN HILEY7
Planned Altitude: 36,000ft
Origin Wx: KRFD 261954Z 35015KT 7SM -SN FEW015 SCT035 BKN044 OVC150 M02/M07 A3000 RMK AO2 SLP167 PRESENT WX DRSN P0000 T10221072
Dest. Wx: KMIA 261953Z 13009KT 10SM CLR 28/20 A3001 RMK AO2 SLP161 T02780200
Notes:

Financial History
Total Freight: 720,882lbs
Average Load: 72,088lbs/flt
Fuel Used: 473,570lbs
Avg. Fuel Used: 47,357lbs/flt
Fuel Expense: $346,565
Avg. Fuel Expense: $34,657
Avg. Fuel Cost: $0.73/lbs
Total Gross Income: $1,007,817
Pilot Pay: $1,190
Total Expenses: $109,364
Total Revenue: $546,927
Average Revenue: $100,781.75